createdAt,value
2022-09-07T00:01:40.079Z,7.93
2022-09-07T00:04:07.974Z,8.20
2022-09-07T00:06:34.744Z,7.47
2022-09-07T00:09:02.479Z,4.83
2022-09-07T00:13:56.135Z,6.47
2022-09-07T00:16:27.893Z,11.03
2022-09-07T00:18:57.049Z,11.02
2022-09-07T00:21:24.326Z,6.70
2022-09-07T00:23:51.940Z,4.72
2022-09-07T00:26:21.498Z,5.07
2022-09-07T00:28:48.958Z,5.97
2022-09-07T00:31:18.800Z,7.40
2022-09-07T00:33:45.952Z,4.78
2022-09-07T00:36:12.557Z,5.68
2022-09-07T00:38:39.156Z,5.45
2022-09-07T00:41:05.902Z,5.53
2022-09-07T00:43:42.076Z,6.20
2022-09-07T00:46:29.732Z,6.82
2022-09-07T00:49:19.168Z,4.90
2022-09-07T00:51:54.008Z,6.68
2022-09-07T00:54:28.388Z,3.53
2022-09-07T00:56:55.101Z,6.22
2022-09-07T00:59:26.841Z,7.05
2022-09-07T01:01:53.693Z,5.35
2022-09-07T01:04:22.250Z,4.37
2022-09-07T01:06:49.237Z,5.10
2022-09-07T01:09:19.793Z,5.27
2022-09-07T01:11:51.034Z,3.00
2022-09-07T01:14:24.960Z,4.57
2022-09-07T01:17:07.238Z,12.57
2022-09-07T01:19:42.593Z,3.88
2022-09-07T01:22:21.380Z,3.38
2022-09-07T01:25:12.605Z,5.80
2022-09-07T01:28:03.906Z,2.90
2022-09-07T01:30:35.253Z,4.68
2022-09-07T01:33:10.677Z,3.47
2022-09-07T01:35:52.521Z,4.40
2022-09-07T01:38:30.909Z,5.05
2022-09-07T01:41:06.108Z,5.10
2022-09-07T01:43:37.550Z,4.35
2022-09-07T01:46:10.537Z,3.58
2022-09-07T01:48:39.660Z,3.05
2022-09-07T01:51:06.300Z,4.45
2022-09-07T01:53:38.065Z,2.13
2022-09-07T01:56:10.007Z,2.20
2022-09-07T01:58:46.223Z,2.67
2022-09-07T02:01:15.630Z,3.00
2022-09-07T02:04:22.438Z,4.70
2022-09-07T02:06:56.114Z,2.40
2022-09-07T02:09:47.585Z,4.38
2022-09-07T02:12:50.754Z,4.03
2022-09-07T02:15:23.797Z,3.42
2022-09-07T02:17:54.388Z,4.20
2022-09-07T02:20:31.413Z,5.45
2022-09-07T02:23:02.581Z,3.85
2022-09-07T02:25:37.829Z,3.75
2022-09-07T02:28:11.371Z,3.50
2022-09-07T02:30:38.294Z,4.22
2022-09-07T02:33:05.613Z,3.63
2022-09-07T02:35:33.525Z,3.42
2022-09-07T02:38:03.529Z,4.68
2022-09-07T02:40:30.090Z,4.88
2022-09-07T02:43:02.978Z,3.15
2022-09-07T02:45:38.850Z,3.20
2022-09-07T02:48:23.188Z,3.45
2022-09-07T02:51:11.037Z,2.88
2022-09-07T02:54:02.786Z,4.82
2022-09-07T02:56:53.106Z,4.57
2022-09-07T02:59:25.681Z,4.28
2022-09-07T03:01:55.299Z,1.80
2022-09-07T03:04:54.513Z,4.32
2022-09-07T03:07:30.621Z,7.15
2022-09-07T03:09:58.458Z,5.55
2022-09-07T03:14:51.571Z,4.63
2022-09-07T03:17:18.239Z,2.50
2022-09-07T03:19:44.786Z,5.07
2022-09-07T03:22:11.301Z,4.40
2022-09-07T03:24:37.858Z,4.13
2022-09-07T03:27:04.403Z,6.25
2022-09-07T03:29:31.037Z,4.50
2022-09-07T03:31:57.806Z,3.67
2022-09-07T03:34:24.343Z,4.03
2022-09-07T03:36:50.877Z,3.00
2022-09-07T03:39:21.040Z,2.72
2022-09-07T03:41:47.890Z,5.20
2022-09-07T03:44:14.470Z,2.93
2022-09-07T03:46:41.171Z,4.22
2022-09-07T03:49:07.682Z,2.85
2022-09-07T03:51:34.254Z,5.90
2022-09-07T03:54:00.817Z,5.47
2022-09-07T03:56:27.725Z,3.67
2022-09-07T03:58:54.865Z,5.87
2022-09-07T04:01:24.447Z,4.60
2022-09-07T04:03:51.978Z,3.90
2022-09-07T04:06:19.822Z,4.53
2022-09-07T04:08:46.390Z,5.28
2022-09-07T04:11:16.226Z,5.65
2022-09-07T04:13:43.562Z,5.63
2022-09-07T04:16:22.001Z,6.10
2022-09-07T04:18:51.940Z,6.90
2022-09-07T04:21:18.850Z,7.32
2022-09-07T04:23:45.894Z,5.23
2022-09-07T04:26:18.445Z,7.07
2022-09-07T04:28:45.636Z,5.10
2022-09-07T04:31:13.901Z,6.43
2022-09-07T04:33:40.565Z,5.47
2022-09-07T04:36:07.646Z,8.05
2022-09-07T04:38:34.483Z,9.98
2022-09-07T04:41:09.531Z,12.70
2022-09-07T04:43:38.097Z,9.43
2022-09-07T04:46:19.394Z,5.57
2022-09-07T04:48:57.843Z,8.50
2022-09-07T04:51:27.229Z,8.15
2022-09-07T04:53:55.421Z,9.27
2022-09-07T04:56:23.276Z,8.73
2022-09-07T04:58:50.408Z,10.10
2022-09-07T05:01:19.706Z,7.22
2022-09-07T05:03:47.290Z,7.55
2022-09-07T05:06:14.751Z,10.18
2022-09-07T05:08:44.480Z,13.30
2022-09-07T05:11:12.254Z,13.93
2022-09-07T05:13:39.081Z,17.35
2022-09-07T05:16:09.491Z,13.10
2022-09-07T05:18:36.447Z,11.25
2022-09-07T05:21:17.312Z,8.90
2022-09-07T05:23:45.535Z,10.68
2022-09-07T05:26:12.236Z,12.25
2022-09-07T05:28:39.346Z,12.18
2022-09-07T05:36:32.538Z,10.80
2022-09-07T05:38:59.581Z,10.85
2022-09-07T05:41:27.032Z,9.57
2022-09-07T05:46:41.328Z,8.68
2022-09-07T05:49:08.213Z,7.60
2022-09-07T05:51:34.780Z,7.87
2022-09-07T05:54:01.572Z,6.80
2022-09-07T05:56:28.258Z,9.73
2022-09-07T05:58:55.162Z,7.85
2022-09-07T06:01:21.696Z,8.23
2022-09-07T06:03:48.347Z,7.45
2022-09-07T06:06:17.598Z,10.25
2022-09-07T06:08:49.337Z,9.07
2022-09-07T06:11:18.656Z,9.68
2022-09-07T06:13:45.558Z,8.43
2022-09-07T06:16:14.196Z,9.20
2022-09-07T06:18:43.277Z,8.57
2022-09-07T06:21:21.378Z,9.63
2022-09-07T06:23:49.345Z,15.43
2022-09-07T06:26:17.198Z,19.15
2022-09-07T06:28:49.190Z,21.52
2022-09-07T06:33:41.636Z,23.63
2022-09-07T06:36:13.652Z,24.55
2022-09-07T06:38:40.717Z,23.08
2022-09-07T06:44:00.899Z,23.25
2022-09-07T06:49:14.059Z,21.30
2022-09-07T06:51:40.585Z,24.92
2022-09-07T06:56:53.724Z,22.83
2022-09-07T06:59:20.381Z,22.05
2022-09-07T07:01:46.932Z,21.67
2022-09-07T07:04:14.419Z,22.90
2022-09-07T07:06:40.992Z,20.00
2022-09-07T07:09:10.721Z,18.80
2022-09-07T07:11:37.763Z,20.48
2022-09-07T07:14:04.809Z,20.77
2022-09-07T07:16:31.577Z,22.23
2022-09-07T07:18:58.384Z,19.37
2022-09-07T07:21:24.931Z,21.08
2022-09-07T07:23:53.169Z,21.63
2022-09-07T07:26:26.822Z,21.00
2022-09-07T07:29:03.879Z,23.05
2022-09-07T07:31:33.259Z,23.92
2022-09-07T07:33:59.939Z,22.90
2022-09-07T07:36:27.701Z,22.10
2022-09-07T07:44:18.768Z,21.25
2022-09-07T07:46:48.771Z,18.95
2022-09-07T07:49:15.368Z,18.60
2022-09-07T07:54:28.444Z,16.50
2022-09-07T07:56:54.876Z,14.05
2022-09-07T07:59:21.465Z,13.95
2022-09-07T08:01:48.006Z,12.90
2022-09-07T08:04:14.808Z,12.97
2022-09-07T08:06:44.382Z,6.77
2022-09-07T08:09:13.948Z,7.40
2022-09-07T08:11:40.687Z,6.25
2022-09-07T08:14:08.664Z,4.97
2022-09-07T08:16:36.355Z,6.47
2022-09-07T08:19:03.207Z,7.28
2022-09-07T08:21:29.889Z,9.10
2022-09-07T08:23:56.425Z,8.67
2022-09-07T08:26:22.948Z,5.97
2022-09-07T08:28:49.496Z,5.32
2022-09-07T08:31:17.137Z,4.20
2022-09-07T08:33:43.725Z,3.88
2022-09-07T08:36:15.538Z,5.18
2022-09-07T08:38:42.405Z,3.80
2022-09-07T08:41:46.521Z,4.63
2022-09-07T08:44:18.889Z,4.63
2022-09-07T08:46:58.670Z,5.32
2022-09-07T08:49:48.818Z,2.92
2022-09-07T08:52:21.366Z,6.10
2022-09-07T08:54:58.720Z,3.50
2022-09-07T09:00:08.458Z,5.88
2022-09-07T09:02:42.028Z,5.15
2022-09-07T09:05:40.360Z,4.40
2022-09-07T09:08:12.244Z,4.35
2022-09-07T09:11:01.960Z,3.88
2022-09-07T09:13:52.150Z,4.68
2022-09-07T09:16:32.199Z,4.30
2022-09-07T09:19:30.605Z,3.65
2022-09-07T09:22:13.796Z,5.55
2022-09-07T09:24:47.764Z,6.57
2022-09-07T09:27:14.612Z,3.05
2022-09-07T09:29:41.209Z,2.67
2022-09-07T09:32:37.731Z,3.73
2022-09-07T09:35:36.350Z,3.00
2022-09-07T09:38:03.781Z,3.58
2022-09-07T09:40:32.725Z,2.80
2022-09-07T09:43:17.438Z,2.90
2022-09-07T09:48:40.433Z,4.55
2022-09-07T09:54:06.292Z,2.60
2022-09-07T09:56:41.665Z,3.90
2022-09-07T10:05:36.072Z,4.97
2022-09-07T10:08:06.160Z,3.75
2022-09-07T10:10:32.985Z,3.75
2022-09-07T10:12:59.734Z,4.47
2022-09-07T10:15:41.250Z,4.28
2022-09-07T10:18:18.684Z,34.33
2022-09-07T10:23:22.196Z,4.90
2022-09-07T10:25:48.921Z,4.35
2022-09-07T10:28:18.365Z,3.50
2022-09-07T10:30:47.686Z,4.07
2022-09-07T10:33:24.841Z,5.80
2022-09-07T10:38:26.012Z,4.65
2022-09-07T10:41:05.853Z,3.10
2022-09-07T10:43:41.341Z,4.57
2022-09-07T10:49:40.900Z,4.85
2022-09-07T10:52:34.599Z,2.63
2022-09-07T10:55:26.413Z,5.07
2022-09-07T11:02:01.811Z,10.10
2022-09-07T11:04:49.365Z,2.10
2022-09-07T11:07:41.766Z,3.60
2022-09-07T11:10:26.273Z,3.22
2022-09-07T11:12:57.859Z,5.38
2022-09-07T11:15:38.804Z,3.65
2022-09-07T11:18:16.933Z,3.08
2022-09-07T11:20:55.466Z,3.28
2022-09-07T11:23:46.773Z,4.65
2022-09-07T11:26:20.515Z,4.18
2022-09-07T11:31:45.935Z,3.08
2022-09-07T11:34:27.560Z,2.05
2022-09-07T11:37:01.182Z,4.13
2022-09-07T11:39:54.368Z,4.95
2022-09-07T11:42:49.057Z,2.83
2022-09-07T11:45:17.555Z,5.90
2022-09-07T11:47:55.969Z,6.95
2022-09-07T11:50:23.834Z,7.72
2022-09-07T11:52:55.590Z,8.13
2022-09-07T11:55:27.388Z,6.90
2022-09-07T11:58:30.104Z,3.88
2022-09-07T12:01:11.677Z,9.27
2022-09-07T12:03:56.484Z,3.85
2022-09-07T12:06:38.534Z,4.20
2022-09-07T12:09:22.964Z,6.53
2022-09-07T12:12:08.295Z,18.48
2022-09-07T12:15:05.857Z,5.57
2022-09-07T12:17:48.009Z,5.55
2022-09-07T12:20:20.529Z,2.88
2022-09-07T12:23:05.769Z,5.18
2022-09-07T12:25:34.124Z,4.90
2022-09-07T12:28:01.192Z,3.53
2022-09-07T12:30:30.230Z,4.10
2022-09-07T12:32:58.427Z,5.00
2022-09-07T12:35:28.446Z,4.55
2022-09-07T12:37:56.612Z,8.38
2022-09-07T12:40:29.719Z,3.28
2022-09-07T12:43:14.596Z,3.60
2022-09-07T12:45:41.639Z,4.32
2022-09-07T12:48:17.074Z,4.70
2022-09-07T12:51:03.821Z,3.45
2022-09-07T12:53:46.123Z,8.98
2022-09-07T12:56:37.437Z,4.25
2022-09-07T12:59:22.237Z,3.92
2022-09-07T13:02:10.095Z,4.38
2022-09-07T13:04:37.067Z,5.30
2022-09-07T13:07:27.452Z,3.80
2022-09-07T13:09:59.454Z,3.40
2022-09-07T13:12:54.898Z,4.15
2022-09-07T13:15:45.868Z,5.40
2022-09-07T13:18:34.941Z,3.67
2022-09-07T13:21:07.652Z,3.58
2022-09-07T13:23:37.921Z,4.65
2022-09-07T13:26:08.079Z,2.72
2022-09-07T13:28:51.079Z,3.72
2022-09-07T13:31:39.222Z,3.47
2022-09-07T13:34:33.852Z,4.55
2022-09-07T13:37:22.790Z,2.60
2022-09-07T13:39:52.628Z,6.22
2022-09-07T13:42:25.193Z,3.25
2022-09-07T13:44:57.499Z,4.28
2022-09-07T13:47:42.156Z,4.97
2022-09-07T13:50:24.210Z,3.55
2022-09-07T13:53:15.234Z,2.55
2022-09-07T13:55:56.821Z,3.65
2022-09-07T13:58:33.316Z,3.08
2022-09-07T14:01:02.854Z,2.42
2022-09-07T14:03:52.012Z,4.03
2022-09-07T14:06:21.612Z,4.70
2022-09-07T14:08:50.553Z,4.97
2022-09-07T14:11:26.892Z,2.45
2022-09-07T14:14:14.508Z,3.67
2022-09-07T14:16:47.141Z,3.10
2022-09-07T14:19:31.940Z,4.30
2022-09-07T14:22:01.596Z,4.43
2022-09-07T14:24:37.009Z,5.05
2022-09-07T14:27:05.309Z,2.33
2022-09-07T14:29:34.459Z,3.05
2022-09-07T14:32:03.508Z,3.95
2022-09-07T14:34:36.321Z,3.97
2022-09-07T14:37:07.087Z,2.53
2022-09-07T14:39:38.266Z,2.72
2022-09-07T14:42:05.303Z,4.80
2022-09-07T14:47:02.830Z,4.93
2022-09-07T14:49:29.633Z,2.55
2022-09-07T14:51:56.265Z,2.05
2022-09-07T14:54:32.935Z,2.88
2022-09-07T14:57:28.283Z,2.40
2022-09-07T14:59:57.236Z,5.50
2022-09-07T15:02:36.976Z,5.93
2022-09-07T15:05:15.294Z,4.13
2022-09-07T15:07:48.689Z,2.90
2022-09-07T15:10:16.395Z,2.00
2022-09-07T15:12:44.211Z,3.95
2022-09-07T15:15:26.707Z,3.95
2022-09-07T15:18:05.883Z,2.30
2022-09-07T15:20:43.280Z,2.47
2022-09-07T15:23:16.926Z,3.60
2022-09-07T15:25:50.907Z,4.47
2022-09-07T15:34:15.747Z,4.30
2022-09-07T15:36:46.375Z,2.97
2022-09-07T15:39:18.623Z,2.83
2022-09-07T15:41:45.854Z,4.25
2022-09-07T15:44:13.864Z,3.05
2022-09-07T15:46:41.127Z,4.47
2022-09-07T15:49:08.204Z,5.80
2022-09-07T15:54:21.869Z,4.35
2022-09-07T16:02:01.996Z,6.35
2022-09-07T16:04:29.378Z,5.65
2022-09-07T16:06:56.031Z,4.30
2022-09-07T16:09:22.719Z,6.38
2022-09-07T16:11:50.640Z,7.95
2022-09-07T16:14:17.734Z,6.97
2022-09-07T16:22:01.981Z,4.40
2022-09-07T16:24:28.757Z,3.08
2022-09-07T16:26:55.325Z,4.20
2022-09-07T16:29:21.834Z,2.95
2022-09-07T16:34:35.098Z,9.25
2022-09-07T16:37:01.861Z,2.97
2022-09-07T16:39:29.203Z,6.32
2022-09-07T16:41:56.006Z,5.57
2022-09-07T16:44:22.928Z,2.95
2022-09-07T16:46:50.544Z,1.83
2022-09-07T16:49:17.756Z,5.47
2022-09-07T16:51:45.776Z,6.00
2022-09-07T16:54:14.338Z,3.33
2022-09-07T16:56:40.897Z,6.30
2022-09-07T16:59:13.538Z,2.13
2022-09-07T17:01:42.010Z,4.53
2022-09-07T17:04:11.207Z,4.65
2022-09-07T17:06:45.300Z,3.83
2022-09-07T17:09:13.404Z,3.42
2022-09-07T17:11:40.277Z,6.45
2022-09-07T17:14:07.184Z,4.60
2022-09-07T17:16:39.115Z,3.72
2022-09-07T17:21:55.520Z,6.25
2022-09-07T17:24:23.917Z,17.80
2022-09-07T17:26:50.445Z,7.55
2022-09-07T17:29:16.946Z,15.55
2022-09-07T17:34:30.581Z,6.30
2022-09-07T17:36:57.893Z,4.97
2022-09-07T17:39:24.743Z,2.85
2022-09-07T17:41:54.629Z,7.25
2022-09-07T17:44:23.402Z,7.85
2022-09-07T17:46:50.984Z,4.75
2022-09-07T17:49:17.832Z,4.95
2022-09-07T17:51:45.334Z,3.58
2022-09-07T17:58:42.793Z,8.13
2022-09-07T18:01:15.872Z,7.10
2022-09-07T18:03:43.122Z,5.20
2022-09-07T18:06:10.881Z,6.65
2022-09-07T18:08:38.007Z,6.97
2022-09-07T18:14:00.034Z,6.22
2022-09-07T18:16:28.152Z,5.82
2022-09-07T18:18:56.339Z,5.43
2022-09-07T18:21:30.763Z,4.80
2022-09-07T18:24:08.889Z,5.88
2022-09-07T18:26:39.129Z,4.88
2022-09-07T18:29:18.725Z,7.22
2022-09-07T18:31:53.926Z,7.50
2022-09-07T18:34:20.785Z,5.53
2022-09-07T18:36:47.571Z,4.50
2022-09-07T18:39:14.242Z,6.63
2022-09-07T18:41:42.200Z,3.83
2022-09-07T18:46:55.689Z,8.38
2022-09-07T18:49:22.292Z,6.43
2022-09-07T18:54:35.336Z,5.63
2022-09-07T18:57:01.959Z,3.77
2022-09-07T18:59:29.733Z,6.77
2022-09-07T19:02:03.054Z,3.33
2022-09-07T19:09:44.345Z,6.40
2022-09-07T19:12:10.874Z,7.10
2022-09-07T19:14:37.425Z,6.95
2022-09-07T19:17:04.006Z,5.93
2022-09-07T19:19:30.620Z,6.95
2022-09-07T19:21:58.302Z,8.13
2022-09-07T19:24:25.815Z,5.45
2022-09-07T19:26:55.716Z,5.35
2022-09-07T19:29:24.773Z,5.78
2022-09-07T19:32:05.326Z,4.53
2022-09-07T19:34:40.209Z,5.85
2022-09-07T19:37:08.445Z,5.55
2022-09-07T19:39:34.934Z,7.20
2022-09-07T19:42:04.147Z,58.78
2022-09-07T19:44:31.481Z,4.90
2022-09-07T19:46:58.185Z,5.57
2022-09-07T19:49:24.723Z,7.87
2022-09-07T19:51:52.088Z,3.63
2022-09-07T19:56:45.162Z,8.57
2022-09-07T19:59:11.980Z,7.25
2022-09-07T20:01:40.139Z,5.83
2022-09-07T20:04:10.558Z,6.53
2022-09-07T20:06:39.462Z,4.88
2022-09-07T20:09:07.068Z,7.70
2022-09-07T20:14:01.627Z,6.32
2022-09-07T20:16:28.321Z,6.23
2022-09-07T20:18:54.841Z,5.80
2022-09-07T20:21:23.594Z,6.30
2022-09-07T20:23:51.024Z,6.53
2022-09-07T20:26:19.937Z,7.45
2022-09-07T20:28:46.919Z,8.93
2022-09-07T20:31:15.927Z,4.80
2022-09-07T20:33:43.977Z,6.00
2022-09-07T20:36:16.013Z,5.82
2022-09-07T20:38:43.582Z,5.85
2022-09-07T20:43:39.796Z,5.63
2022-09-07T20:46:06.560Z,4.82
2022-09-07T20:48:34.014Z,4.47
2022-09-07T20:51:01.420Z,6.63
2022-09-07T20:53:27.991Z,6.50
2022-09-07T20:56:00.115Z,6.43
2022-09-07T20:58:26.641Z,5.40
2022-09-07T21:00:53.351Z,6.30
2022-09-07T21:03:19.930Z,5.97
2022-09-07T21:05:46.447Z,4.78
2022-09-07T21:08:13.607Z,4.47
2022-09-07T21:10:41.502Z,9.10
2022-09-07T21:13:08.416Z,6.53
2022-09-07T21:15:42.607Z,6.63
2022-09-07T21:18:14.313Z,4.97
2022-09-07T21:20:41.018Z,5.50
2022-09-07T21:23:07.619Z,5.13
2022-09-07T21:25:34.112Z,5.72
2022-09-07T21:28:00.637Z,6.10
2022-09-07T21:30:27.175Z,4.05
2022-09-07T21:32:53.623Z,3.67
2022-09-07T21:35:20.516Z,3.58
2022-09-07T21:37:47.004Z,6.37
2022-09-07T21:40:13.654Z,4.95
2022-09-07T21:42:40.704Z,6.53
2022-09-07T21:45:09.135Z,3.50
2022-09-07T21:47:35.641Z,4.47
2022-09-07T21:50:02.455Z,7.20
2022-09-07T21:52:28.940Z,3.13
2022-09-07T21:54:55.459Z,5.68
2022-09-07T21:57:21.905Z,4.60
2022-09-07T21:59:48.454Z,5.10
2022-09-07T22:02:15.074Z,5.63
2022-09-07T22:04:41.685Z,4.47
2022-09-07T22:07:08.198Z,4.55
2022-09-07T22:09:34.689Z,3.90
2022-09-07T22:12:01.286Z,6.53
2022-09-07T22:14:27.863Z,4.18
2022-09-07T22:16:54.371Z,3.63
2022-09-07T22:19:20.962Z,4.82
2022-09-07T22:21:47.434Z,3.65
2022-09-07T22:24:15.263Z,5.00
2022-09-07T22:26:41.916Z,6.13
2022-09-07T22:29:11.636Z,2.45
2022-09-07T22:31:39.267Z,3.53
2022-09-07T22:34:10.566Z,2.13
2022-09-07T22:36:43.227Z,3.95
2022-09-07T22:39:15.584Z,6.93
2022-09-07T22:41:42.774Z,2.50
2022-09-07T22:44:15.452Z,4.28
2022-09-07T22:46:43.738Z,4.32
2022-09-07T22:49:12.619Z,4.05
2022-09-07T22:51:39.352Z,5.68
2022-09-07T22:54:06.423Z,6.83
2022-09-07T22:56:34.146Z,2.25
2022-09-07T22:59:03.810Z,2.95
2022-09-07T23:01:31.847Z,4.38
2022-09-07T23:03:58.688Z,3.35
2022-09-07T23:06:34.193Z,3.27
2022-09-07T23:09:04.356Z,2.25
2022-09-07T23:11:30.948Z,3.85
2022-09-07T23:13:59.307Z,3.47
2022-09-07T23:16:27.749Z,3.33
2022-09-07T23:18:55.496Z,2.88
2022-09-07T23:21:22.140Z,4.03
2022-09-07T23:23:52.790Z,2.97
2022-09-07T23:26:21.682Z,2.50
2022-09-07T23:28:56.588Z,3.95
2022-09-07T23:31:23.973Z,3.92
2022-09-07T23:33:51.140Z,3.97
2022-09-07T23:36:18.788Z,2.83
2022-09-07T23:41:14.231Z,4.30
2022-09-07T23:43:41.180Z,3.47
2022-09-07T23:46:07.956Z,2.80
2022-09-07T23:48:34.455Z,5.93
2022-09-07T23:51:00.967Z,2.63
2022-09-07T23:53:27.488Z,3.47
2022-09-07T23:55:54.194Z,6.30
